Time;durP1;ratioP1;P1;durP2;ratioP2;P2;SDS_P1;SDS_P2;PMS_P1;PMS_P2;Temp;Humidity;BMP_temperature;BMP_pressure;BME280_temperature;BME280_humidity;BME280_pressure;Samples;Min_cycle;Max_cycle;Signal;HPM_P1;HPM_P2
2023/01/17 00:02:20;;;;;;;7.10;1.63;;;;;;;;;;5029431;28;20505;-76
2023/01/17 00:10:16;;;;;;;6.15;1.33;;;;;;;;;;5029351;28;20108;-74
2023/01/17 00:12:50;;;;;;;4.20;1.00;;;;;;;;;;5011489;28;20444;-73
2023/01/17 00:15:18;;;;;;;4.85;1.10;;;;;;;;;;5011928;28;20104;-73
2023/01/17 00:17:45;;;;;;;7.00;1.00;;;;;;;;;;5025927;28;20474;-73
2023/01/17 00:26:02;;;;;;;1.17;0.45;;;;;;;;;;5030820;28;20026;-75
2023/01/17 01:35:18;;;;;;;4.55;0.43;;;;;;;;;;5035689;28;20026;-72
2023/01/17 01:37:43;;;;;;;0.70;0.40;;;;;;;;;;5036082;28;20483;-73
2023/01/17 01:40:09;;;;;;;0.55;0.35;;;;;;;;;;5018232;28;20049;-73
2023/01/17 01:42:35;;;;;;;2.20;0.20;;;;;;;;;;5036586;28;20087;-73
2023/01/17 01:45:01;;;;;;;0.90;0.63;;;;;;;;;;5034888;28;20029;-72
2023/01/17 01:47:32;;;;;;;1.45;0.30;;;;;;;;;;5036057;28;20032;-72
2023/01/17 01:50:00;;;;;;;0.43;0.30;;;;;;;;;;5017595;28;20070;-72
2023/01/17 01:52:27;;;;;;;0.15;0.10;;;;;;;;;;5034419;28;20083;-73
2023/01/17 01:54:56;;;;;;;0.55;0.52;;;;;;;;;;5035915;28;20364;-72
2023/01/17 01:57:25;;;;;;;2.20;1.75;;;;;;;;;;5035789;28;20025;-72
2023/01/17 01:59:53;;;;;;;1.73;0.38;;;;;;;;;;5018448;28;20456;-72
2023/01/17 02:02:18;;;;;;;0.20;0.20;;;;;;;;;;5036191;28;20416;-73
2023/01/17 02:04:44;;;;;;;0.75;0.68;;;;;;;;;;5035610;28;20072;-72
2023/01/17 02:07:15;;;;;;;1.75;0.30;;;;;;;;;;5035421;28;20021;-72
2023/01/17 02:09:41;;;;;;;6.53;0.80;;;;;;;;;;5035783;28;20029;-73
2023/01/17 02:12:07;;;;;;;7.47;0.22;;;;;;;;;;5034997;28;20025;-72
2023/01/17 02:14:33;;;;;;;0.10;0.10;;;;;;;;;;5035599;28;20025;-73
2023/01/17 02:17:04;;;;;;;0.10;0.10;;;;;;;;;;5035683;28;20078;-73
2023/01/17 02:19:46;;;;;;;0.45;0.45;;;;;;;;;;5035412;28;20044;-73
2023/01/17 02:22:30;;;;;;;3.25;1.73;;;;;;;;;;5035776;28;20426;-72
2023/01/17 02:25:14;;;;;;;0.10;0.10;;;;;;;;;;5035137;28;20032;-73
2023/01/17 02:27:50;;;;;;;2.15;0.63;;;;;;;;;;5035600;28;20104;-72
2023/01/17 02:30:21;;;;;;;0.10;0.10;;;;;;;;;;5035071;28;20021;-73
2023/01/17 02:32:46;;;;;;;0.30;0.30;;;;;;;;;;5035185;28;20029;-73
2023/01/17 02:35:20;;;;;;;1.65;0.43;;;;;;;;;;5035269;28;20060;-72
2023/01/17 02:37:51;;;;;;;0.73;0.50;;;;;;;;;;5035404;28;20025;-72
2023/01/17 02:40:23;;;;;;;0.95;0.20;;;;;;;;;;5035263;28;20033;-73
2023/01/17 02:42:56;;;;;;;0.40;0.40;;;;;;;;;;5035056;28;20028;-73
2023/01/17 02:45:22;;;;;;;0.10;0.10;;;;;;;;;;5034974;28;20029;-74
2023/01/17 02:47:47;;;;;;;0.13;0.13;;;;;;;;;;5034973;28;20373;-72
2023/01/17 02:50:39;;;;;;;0.17;0.17;;;;;;;;;;5035067;28;20037;-76
2023/01/17 02:53:11;;;;;;;0.10;0.10;;;;;;;;;;4994552;28;20033;-75
2023/01/17 02:55:39;;;;;;;0.10;0.10;;;;;;;;;;5035102;28;20373;-75
2023/01/17 02:58:05;;;;;;;0.10;0.10;;;;;;;;;;5034602;28;20025;-73
2023/01/17 03:00:34;;;;;;;0.88;0.88;;;;;;;;;;5034889;28;20109;-73
2023/01/17 03:03:13;;;;;;;0.20;0.20;;;;;;;;;;5034783;28;20060;-72
2023/01/17 03:05:41;;;;;;;0.20;0.20;;;;;;;;;;5033791;28;20037;-72
2023/01/17 03:08:07;;;;;;;0.75;0.32;;;;;;;;;;5033210;28;20368;-72
2023/01/17 03:10:34;;;;;;;0.82;0.57;;;;;;;;;;5032469;28;20021;-72
2023/01/17 03:12:59;;;;;;;0.10;0.10;;;;;;;;;;5034551;28;20021;-72
2023/01/17 03:15:25;;;;;;;0.17;0.17;;;;;;;;;;5034167;28;20503;-72
2023/01/17 03:17:52;;;;;;;3.60;0.47;;;;;;;;;;5034656;28;20052;-73
2023/01/17 03:20:18;;;;;;;2.42;0.75;;;;;;;;;;5034396;28;20028;-73
2023/01/17 03:22:43;;;;;;;0.10;0.10;;;;;;;;;;5032728;28;20033;-73
2023/01/17 03:25:09;;;;;;;0.10;0.10;;;;;;;;;;5034080;28;20148;-73
2023/01/17 03:27:34;;;;;;;0.10;0.10;;;;;;;;;;5034216;28;20033;-73
2023/01/17 03:30:00;;;;;;;0.10;0.10;;;;;;;;;;5034170;28;20025;-74
2023/01/17 03:32:26;;;;;;;0.10;0.10;;;;;;;;;;5015440;28;20472;-73
2023/01/17 03:34:51;;;;;;;0.10;0.10;;;;;;;;;;5033782;28;20025;-73
2023/01/17 03:37:16;;;;;;;0.10;0.10;;;;;;;;;;5034121;28;20032;-73
2023/01/17 03:39:42;;;;;;;0.10;0.10;;;;;;;;;;5033879;28;20432;-73
2023/01/17 03:42:07;;;;;;;0.10;0.10;;;;;;;;;;5016529;28;20017;-73
2023/01/17 03:44:33;;;;;;;0.10;0.10;;;;;;;;;;5034504;28;20025;-75
2023/01/17 03:46:58;;;;;;;0.10;0.10;;;;;;;;;;5033863;28;20056;-75
2023/01/17 03:49:24;;;;;;;1.20;0.85;;;;;;;;;;5033892;28;20026;-74
2023/01/17 03:51:49;;;;;;;0.10;0.10;;;;;;;;;;5033336;28;20350;-75
2023/01/17 03:54:14;;;;;;;0.32;0.32;;;;;;;;;;5033027;28;20052;-75
2023/01/17 03:56:40;;;;;;;0.20;0.20;;;;;;;;;;5026782;28;20090;-75
2023/01/17 03:59:05;;;;;;;0.10;0.10;;;;;;;;;;5033484;28;20376;-76
2023/01/17 04:01:31;;;;;;;0.15;0.15;;;;;;;;;;5033880;28;20048;-76
2023/01/17 04:03:56;;;;;;;0.10;0.10;;;;;;;;;;5038556;28;20042;-76
2023/01/17 04:06:21;;;;;;;0.10;0.10;;;;;;;;;;5029399;28;20099;-76
2023/01/17 04:08:47;;;;;;;0.22;0.22;;;;;;;;;;5029518;28;20487;-76
2023/01/17 04:11:12;;;;;;;2.75;0.35;;;;;;;;;;5029176;28;20037;-76
2023/01/17 04:13:38;;;;;;;0.10;0.10;;;;;;;;;;5029641;28;20029;-74
2023/01/17 04:16:03;;;;;;;0.43;0.30;;;;;;;;;;5029522;28;20485;-75
2023/01/17 04:18:29;;;;;;;0.10;0.10;;;;;;;;;;5029234;28;20339;-74
2023/01/17 04:20:54;;;;;;;0.10;0.10;;;;;;;;;;5028483;28;20029;-76
2023/01/17 04:23:19;;;;;;;0.10;0.10;;;;;;;;;;5029954;28;20056;-75
2023/01/17 04:25:45;;;;;;;0.08;0.08;;;;;;;;;;5029541;28;20079;-74
2023/01/17 04:28:11;;;;;;;3.40;1.05;;;;;;;;;;5029708;28;20021;-75
2023/01/17 04:30:37;;;;;;;0.20;0.20;;;;;;;;;;5029631;28;20033;-75
2023/01/17 04:33:02;;;;;;;0.90;0.90;;;;;;;;;;5029781;28;20023;-75
2023/01/17 04:35:28;;;;;;;0.10;0.10;;;;;;;;;;5029116;28;20400;-74
2023/01/17 04:37:54;;;;;;;0.30;0.30;;;;;;;;;;5011010;28;20465;-75
2023/01/17 04:40:19;;;;;;;3.30;0.47;;;;;;;;;;5029466;28;20104;-76
2023/01/17 04:42:45;;;;;;;1.65;0.52;;;;;;;;;;5029681;28;20021;-76
2023/01/17 04:45:11;;;;;;;0.20;0.20;;;;;;;;;;5029660;28;20028;-76
2023/01/17 04:47:36;;;;;;;10.25;2.33;;;;;;;;;;5011646;28;20457;-77
2023/01/17 04:50:06;;;;;;;0.20;0.20;;;;;;;;;;5029097;28;20034;-77
2023/01/17 04:52:32;;;;;;;1.35;0.28;;;;;;;;;;5028564;28;20037;-77
2023/01/17 04:54:57;;;;;;;0.17;0.17;;;;;;;;;;5029289;28;20354;-77
2023/01/17 04:57:23;;;;;;;4.40;0.73;;;;;;;;;;5029552;28;20022;-77
2023/01/17 04:59:49;;;;;;;2.88;1.20;;;;;;;;;;5029129;28;20032;-78
2023/01/17 05:02:14;;;;;;;0.10;0.10;;;;;;;;;;5042283;28;20025;-77
2023/01/17 05:04:40;;;;;;;0.10;0.10;;;;;;;;;;5048716;28;20171;-77
2023/01/17 05:07:05;;;;;;;0.45;0.43;;;;;;;;;;5033359;28;20389;-78
2023/01/17 05:09:31;;;;;;;0.10;0.10;;;;;;;;;;5029108;28;20111;-76
2023/01/17 05:11:56;;;;;;;1.70;0.80;;;;;;;;;;5028578;28;20484;-77
2023/01/17 05:14:25;;;;;;;0.90;0.28;;;;;;;;;;5029364;28;20453;-75
2023/01/17 05:16:54;;;;;;;0.15;0.10;;;;;;;;;;5028630;28;20116;-75
2023/01/17 05:19:20;;;;;;;3.53;1.27;;;;;;;;;;4991526;28;20145;-76
2023/01/17 05:21:45;;;;;;;0.10;0.10;;;;;;;;;;5014786;28;20112;-75
2023/01/17 05:24:10;;;;;;;0.10;0.10;;;;;;;;;;5023077;28;20036;-73
2023/01/17 05:26:36;;;;;;;0.28;0.28;;;;;;;;;;5015293;28;20029;-76
2023/01/17 05:29:01;;;;;;;4.22;0.73;;;;;;;;;;5032537;28;20491;-75
2023/01/17 05:31:27;;;;;;;1.58;0.47;;;;;;;;;;5032699;28;20033;-73
2023/01/17 05:33:52;;;;;;;0.85;0.40;;;;;;;;;;5032005;28;20392;-74
2023/01/17 05:36:18;;;;;;;2.85;1.95;;;;;;;;;;5032692;28;20037;-75
2023/01/17 05:38:43;;;;;;;13.60;1.27;;;;;;;;;;5032153;28;20124;-76
2023/01/17 05:41:08;;;;;;;5.18;0.63;;;;;;;;;;5014878;28;20056;-74
2023/01/17 05:43:34;;;;;;;5.28;1.02;;;;;;;;;;5032768;28;20028;-76
2023/01/17 05:45:59;;;;;;;4.93;0.75;;;;;;;;;;5031088;28;20013;-75
2023/01/17 05:48:25;;;;;;;0.88;0.40;;;;;;;;;;5031879;28;20158;-73
2023/01/17 05:50:51;;;;;;;4.75;0.57;;;;;;;;;;5032092;28;20033;-74
2023/01/17 05:53:16;;;;;;;0.32;0.20;;;;;;;;;;5030860;28;20531;-73
2023/01/17 05:55:42;;;;;;;8.07;0.93;;;;;;;;;;5030127;28;20030;-74
2023/01/17 05:58:12;;;;;;;3.60;0.77;;;;;;;;;;5030344;28;20061;-75
2023/01/17 06:00:37;;;;;;;;;;;;;;;;;;5031611;28;20045;-73
2023/01/17 06:03:03;;;;;;;0.68;0.20;;;;;;;;;;5031349;28;19959;-74
2023/01/17 06:05:28;;;;;;;6.13;0.63;;;;;;;;;;5022241;28;20114;-72
2023/01/17 06:07:55;;;;;;;1.58;1.42;;;;;;;;;;5010583;28;20045;-75
2023/01/17 06:10:21;;;;;;;0.20;0.20;;;;;;;;;;5031707;28;20097;-74
2023/01/17 06:12:47;;;;;;;0.10;0.10;;;;;;;;;;5030393;28;20033;-77
2023/01/17 06:15:14;;;;;;;0.22;0.22;;;;;;;;;;5030976;28;20100;-74
2023/01/17 06:17:39;;;;;;;0.10;0.10;;;;;;;;;;5012558;28;20049;-76
2023/01/17 06:20:06;;;;;;;6.20;0.93;;;;;;;;;;5031447;28;20036;-74
2023/01/17 06:22:32;;;;;;;9.32;0.82;;;;;;;;;;5029681;28;20028;-74
2023/01/17 06:24:57;;;;;;;7.93;1.02;;;;;;;;;;5030435;28;20014;-76
2023/01/17 06:27:23;;;;;;;3.63;1.45;;;;;;;;;;5031830;28;20056;-77
2023/01/17 06:29:48;;;;;;;3.65;0.90;;;;;;;;;;5030886;28;20484;-76
2023/01/17 06:32:14;;;;;;;4.03;0.22;;;;;;;;;;5031432;28;20048;-76
2023/01/17 06:34:39;;;;;;;6.55;2.28;;;;;;;;;;5030074;28;20017;-78
2023/01/17 06:37:05;;;;;;;1.52;1.10;;;;;;;;;;5030930;28;20033;-76
2023/01/17 06:39:30;;;;;;;0.38;0.25;;;;;;;;;;5029976;28;20021;-74
2023/01/17 06:41:56;;;;;;;3.35;0.45;;;;;;;;;;5029403;28;20033;-75
2023/01/17 06:44:21;;;;;;;10.98;1.05;;;;;;;;;;5027856;28;20100;-74
2023/01/17 06:46:47;;;;;;;0.95;0.73;;;;;;;;;;5029739;28;20017;-75
2023/01/17 06:49:12;;;;;;;1.55;0.85;;;;;;;;;;5029498;28;20051;-74
2023/01/17 06:51:38;;;;;;;2.20;0.60;;;;;;;;;;5029115;28;20029;-77
2023/01/17 06:54:03;;;;;;;1.48;0.60;;;;;;;;;;5012475;28;20484;-75
2023/01/17 06:56:32;;;;;;;2.13;0.50;;;;;;;;;;5030446;28;20087;-73
2023/01/17 06:58:58;;;;;;;6.80;2.17;;;;;;;;;;5026426;28;20049;-76
2023/01/17 07:01:23;;;;;;;2.63;0.32;;;;;;;;;;5010133;28;20053;-75
2023/01/17 07:03:49;;;;;;;7.85;0.95;;;;;;;;;;5027153;28;20029;-76
2023/01/17 07:06:14;;;;;;;3.70;0.68;;;;;;;;;;5026875;28;20046;-76
2023/01/17 07:08:40;;;;;;;1.83;0.60;;;;;;;;;;5028690;28;20360;-80
2023/01/17 07:11:09;;;;;;;25.02;0.70;;;;;;;;;;5010465;28;20033;-76
2023/01/17 07:13:35;;;;;;;3.20;0.45;;;;;;;;;;5030002;28;20373;-74
2023/01/17 07:16:01;;;;;;;5.63;1.10;;;;;;;;;;5012177;28;20457;-74
2023/01/17 07:18:27;;;;;;;4.05;0.40;;;;;;;;;;5030625;28;20053;-73
2023/01/17 07:20:52;;;;;;;2.85;0.65;;;;;;;;;;5030735;28;20060;-73
2023/01/17 07:23:18;;;;;;;0.10;0.10;;;;;;;;;;5029065;28;20022;-73
2023/01/17 07:25:49;;;;;;;1.27;0.22;;;;;;;;;;5029606;28;20025;-73
2023/01/17 07:28:15;;;;;;;0.10;0.10;;;;;;;;;;5031010;28;20028;-72
2023/01/17 07:30:40;;;;;;;0.57;0.30;;;;;;;;;;5028953;28;20055;-73
2023/01/17 07:33:05;;;;;;;1.00;0.50;;;;;;;;;;5029677;28;20022;-74
2023/01/17 07:35:31;;;;;;;6.18;1.70;;;;;;;;;;5029668;28;20029;-73
2023/01/17 07:37:56;;;;;;;7.90;0.75;;;;;;;;;;5029948;28;20437;-75
2023/01/17 07:40:22;;;;;;;7.32;1.17;;;;;;;;;;5028010;28;20026;-74
2023/01/17 07:42:47;;;;;;;6.38;1.02;;;;;;;;;;5030325;28;20083;-73
2023/01/17 07:45:14;;;;;;;0.50;0.50;;;;;;;;;;5029282;28;20385;-74
2023/01/17 07:47:39;;;;;;;10.65;1.33;;;;;;;;;;5028610;28;20029;-73
2023/01/17 07:50:06;;;;;;;12.90;1.73;;;;;;;;;;5030176;28;20025;-73
2023/01/17 07:52:31;;;;;;;6.53;1.90;;;;;;;;;;5029807;28;20043;-73
2023/01/17 07:54:57;;;;;;;1.02;0.88;;;;;;;;;;5029677;28;20457;-73
2023/01/17 07:57:22;;;;;;;20.27;4.43;;;;;;;;;;5025543;28;20022;-74
2023/01/17 07:59:51;;;;;;;5.10;1.65;;;;;;;;;;5010582;28;20033;-73
2023/01/17 08:02:18;;;;;;;11.20;2.53;;;;;;;;;;5025440;28;20033;-73
2023/01/17 08:04:43;;;;;;;9.48;2.15;;;;;;;;;;5021057;28;20047;-73
2023/01/17 08:07:09;;;;;;;2.28;0.30;;;;;;;;;;5030129;28;20376;-73
2023/01/17 08:09:35;;;;;;;26.42;2.33;;;;;;;;;;5029169;28;20026;-73
2023/01/17 08:12:00;;;;;;;15.95;1.90;;;;;;;;;;5027384;28;20048;-73
2023/01/17 08:14:26;;;;;;;28.60;4.30;;;;;;;;;;5029353;28;20036;-72
2023/01/17 08:16:52;;;;;;;2.25;0.85;;;;;;;;;;5028228;28;20029;-73
2023/01/17 08:19:17;;;;;;;5.45;1.75;;;;;;;;;;5012022;28;20022;-73
2023/01/17 08:21:43;;;;;;;9.40;1.77;;;;;;;;;;5027507;28;20052;-73
2023/01/17 08:24:12;;;;;;;1.65;0.65;;;;;;;;;;5033593;28;20492;-74
2023/01/17 08:26:38;;;;;;;2.13;0.50;;;;;;;;;;5029599;28;20022;-73
2023/01/17 08:29:03;;;;;;;9.10;1.65;;;;;;;;;;5011762;28;20074;-73
2023/01/17 08:31:30;;;;;;;4.68;1.83;;;;;;;;;;5029622;28;20025;-73
2023/01/17 08:33:56;;;;;;;10.60;2.80;;;;;;;;;;5028704;28;20143;-73
2023/01/17 08:36:24;;;;;;;6.32;1.25;;;;;;;;;;5028784;28;20104;-73
2023/01/17 08:38:51;;;;;;;18.63;2.78;;;;;;;;;;5010876;28;20022;-73
2023/01/17 08:41:17;;;;;;;13.48;3.42;;;;;;;;;;5029182;28;20029;-73
2023/01/17 08:43:43;;;;;;;10.38;4.00;;;;;;;;;;5028578;28;20028;-73
2023/01/17 08:46:08;;;;;;;15.68;4.63;;;;;;;;;;5028009;28;20009;-73
2023/01/17 08:48:34;;;;;;;20.67;4.28;;;;;;;;;;5025580;28;20026;-73
2023/01/17 08:51:00;;;;;;;5.00;1.40;;;;;;;;;;5026413;28;20060;-72
2023/01/17 08:53:26;;;;;;;2.47;1.15;;;;;;;;;;5026765;28;20026;-72
2023/01/17 08:55:58;;;;;;;12.15;2.28;;;;;;;;;;5021293;28;20024;-73
2023/01/17 08:58:24;;;;;;;24.67;2.53;;;;;;;;;;5025008;28;20559;-74
2023/01/17 09:00:50;;;;;;;7.57;2.17;;;;;;;;;;5029737;28;20018;-73
2023/01/17 09:03:15;;;;;;;30.70;3.40;;;;;;;;;;5013375;28;20040;-72
2023/01/17 09:05:41;;;;;;;28.33;4.53;;;;;;;;;;5026644;28;20485;-72
2023/01/17 09:08:06;;;;;;;2.95;1.30;;;;;;;;;;5027909;28;20364;-72
2023/01/17 09:10:32;;;;;;;28.60;3.25;;;;;;;;;;5012023;28;20044;-72
2023/01/17 09:12:57;;;;;;;16.65;2.78;;;;;;;;;;5034322;28;20423;-73
2023/01/17 09:15:23;;;;;;;14.07;2.25;;;;;;;;;;5030627;28;20021;-75
2023/01/17 09:17:49;;;;;;;14.18;2.53;;;;;;;;;;5029667;28;20025;-73
2023/01/17 09:20:14;;;;;;;25.00;3.47;;;;;;;;;;5029170;28;20021;-71
2023/01/17 09:22:40;;;;;;;11.55;2.28;;;;;;;;;;5031807;28;20101;-73
2023/01/17 09:25:06;;;;;;;11.75;1.70;;;;;;;;;;5031954;28;20052;-73
2023/01/17 09:27:31;;;;;;;6.40;1.50;;;;;;;;;;5011863;28;20026;-72
2023/01/17 09:29:57;;;;;;;14.57;2.30;;;;;;;;;;5032690;28;20059;-73
2023/01/17 09:32:22;;;;;;;19.80;3.08;;;;;;;;;;5032269;28;20193;-72
2023/01/17 09:34:48;;;;;;;9.07;3.28;;;;;;;;;;5032281;28;20025;-73
2023/01/17 09:37:13;;;;;;;4.57;1.08;;;;;;;;;;5032100;28;20029;-71
2023/01/17 09:39:39;;;;;;;4.30;0.77;;;;;;;;;;5031868;28;20024;-72
2023/01/17 09:42:07;;;;;;;3.30;1.23;;;;;;;;;;5031510;28;20028;-73
2023/01/17 09:45:02;;;;;;;9.63;1.63;;;;;;;;;;5031689;28;20022;-75
2023/01/17 09:47:38;;;;;;;6.53;0.65;;;;;;;;;;5022101;28;20045;-72
2023/01/17 09:50:14;;;;;;;7.35;1.00;;;;;;;;;;5030626;28;20021;-71
2023/01/17 09:52:39;;;;;;;8.75;3.13;;;;;;;;;;5038610;28;20095;-71
2023/01/17 09:55:05;;;;;;;2.60;0.45;;;;;;;;;;5050512;28;20013;-72
2023/01/17 09:57:45;;;;;;;2.20;0.40;;;;;;;;;;5050091;28;20032;-72
2023/01/17 10:00:17;;;;;;;8.55;1.70;;;;;;;;;;5032821;28;20515;-73
2023/01/17 10:03:03;;;;;;;1.15;0.32;;;;;;;;;;5051977;28;20020;-73
2023/01/17 10:05:32;;;;;;;0.80;0.80;;;;;;;;;;5033517;28;20460;-72
2023/01/17 10:08:00;;;;;;;3.78;1.63;;;;;;;;;;5031725;28;20028;-72
2023/01/17 10:11:01;;;;;;;2.38;1.13;;;;;;;;;;4992644;28;20107;-73
2023/01/17 10:13:41;;;;;;;5.22;1.50;;;;;;;;;;4988411;28;20591;-74
2023/01/17 10:16:16;;;;;;;3.80;1.02;;;;;;;;;;5007879;28;20048;-74
2023/01/17 10:19:02;;;;;;;0.00;0.00;;;;;;;;;;5007546;28;20026;-74
2023/01/17 10:21:43;;;;;;;4.32;0.60;;;;;;;;;;5014591;28;20041;-73
2023/01/17 10:24:15;;;;;;;0.10;0.10;;;;;;;;;;5027331;28;20617;-75
2023/01/17 10:26:42;;;;;;;2.58;0.75;;;;;;;;;;5029443;28;20030;-75
2023/01/17 10:29:13;;;;;;;6.28;1.35;;;;;;;;;;5029038;28;20032;-74
2023/01/17 10:31:41;;;;;;;17.42;3.53;;;;;;;;;;5030203;28;20033;-73
2023/01/17 10:34:16;;;;;;;1.58;0.93;;;;;;;;;;5031204;28;20021;-75
2023/01/17 10:36:47;;;;;;;16.65;3.40;;;;;;;;;;5030945;28;20537;-73
2023/01/17 10:39:14;;;;;;;7.25;1.65;;;;;;;;;;5030727;28;20095;-73
2023/01/17 10:41:42;;;;;;;12.43;3.65;;;;;;;;;;5035380;28;20029;-77
2023/01/17 10:44:10;;;;;;;6.63;1.40;;;;;;;;;;5030221;28;20487;-72
2023/01/17 10:46:46;;;;;;;11.88;2.10;;;;;;;;;;5030514;28;20110;-73
2023/01/17 10:49:16;;;;;;;17.75;3.25;;;;;;;;;;5030355;28;20484;-73
2023/01/17 10:51:42;;;;;;;15.02;4.03;;;;;;;;;;5030297;28;20048;-75
2023/01/17 10:54:23;;;;;;;10.90;4.32;;;;;;;;;;5031278;28;20033;-73
2023/01/17 10:56:48;;;;;;;32.22;5.25;;;;;;;;;;5030332;28;20025;-73
2023/01/17 10:59:29;;;;;;;0.35;0.25;;;;;;;;;;5030886;28;20024;-73
2023/01/17 11:01:55;;;;;;;6.60;1.58;;;;;;;;;;5029544;28;20025;-72
2023/01/17 11:04:24;;;;;;;16.92;2.47;;;;;;;;;;5031913;28;20019;-73
2023/01/17 11:07:11;;;;;;;3.17;1.88;;;;;;;;;;5048365;28;20021;-72
2023/01/17 11:09:37;;;;;;;0.45;0.30;;;;;;;;;;5047119;28;20044;-72
2023/01/17 11:12:03;;;;;;;15.35;5.53;;;;;;;;;;5047842;28;20041;-73
2023/01/17 11:14:29;;;;;;;3.85;0.93;;;;;;;;;;5048506;28;20028;-72
2023/01/17 11:17:00;;;;;;;14.50;2.63;;;;;;;;;;5047967;28;20806;-74
2023/01/17 11:19:31;;;;;;;14.10;3.42;;;;;;;;;;5048179;28;20025;-72
2023/01/17 11:22:01;;;;;;;8.45;2.50;;;;;;;;;;5047023;28;20021;-71
2023/01/17 11:24:33;;;;;;;6.82;0.82;;;;;;;;;;5045230;28;20036;-72
2023/01/17 11:26:58;;;;;;;6.35;2.03;;;;;;;;;;5030056;28;20025;-71
2023/01/17 11:29:24;;;;;;;20.80;0.98;;;;;;;;;;5030207;28;20036;-72
2023/01/17 11:31:49;;;;;;;8.90;2.13;;;;;;;;;;5047722;28;20025;-71
2023/01/17 11:34:22;;;;;;;4.78;0.65;;;;;;;;;;5031266;28;20025;-71
2023/01/17 11:36:48;;;;;;;7.20;2.05;;;;;;;;;;5024862;28;20021;-72
2023/01/17 11:39:16;;;;;;;5.18;1.38;;;;;;;;;;5049604;28;20500;-72
2023/01/17 11:41:42;;;;;;;7.80;2.25;;;;;;;;;;5031947;28;20098;-72
2023/01/17 11:44:19;;;;;;;23.38;2.22;;;;;;;;;;5049877;28;20037;-73
2023/01/17 11:46:45;;;;;;;0.57;0.17;;;;;;;;;;5049477;28;20017;-72
2023/01/17 11:49:21;;;;;;;4.50;0.70;;;;;;;;;;5031818;28;20083;-71
2023/01/17 11:51:46;;;;;;;5.88;1.35;;;;;;;;;;5031499;28;20076;-72
2023/01/17 11:54:15;;;;;;;3.70;1.30;;;;;;;;;;5049597;28;20048;-72
2023/01/17 11:56:43;;;;;;;11.20;2.20;;;;;;;;;;5049495;28;20410;-72
2023/01/17 11:59:22;;;;;;;12.77;2.07;;;;;;;;;;5043296;28;20017;-72
2023/01/17 12:02:00;;;;;;;3.10;1.23;;;;;;;;;;5029433;28;20029;-72
2023/01/17 12:04:37;;;;;;;16.98;3.50;;;;;;;;;;5020715;28;20030;-72
2023/01/17 12:07:12;;;;;;;0.15;0.13;;;;;;;;;;4975959;28;20418;-72
2023/01/17 12:09:57;;;;;;;14.43;3.13;;;;;;;;;;5019786;28;20428;-72
2023/01/17 12:15:32;;;;;;;11.55;1.40;;;;;;;;;;5049467;28;20025;-74
2023/01/17 12:18:11;;;;;;;8.73;2.40;;;;;;;;;;5047025;28;20032;-72
2023/01/17 12:20:46;;;;;;;10.63;3.22;;;;;;;;;;5028231;28;20087;-72
2023/01/17 12:23:18;;;;;;;28.30;3.90;;;;;;;;;;5028670;28;20084;-71
2023/01/17 12:25:47;;;;;;;10.40;0.90;;;;;;;;;;5029093;28;20037;-71
2023/01/17 12:28:19;;;;;;;4.35;0.82;;;;;;;;;;5029210;28;20369;-75
2023/01/17 12:30:57;;;;;;;8.80;1.15;;;;;;;;;;5028490;28;20132;-72
2023/01/17 12:33:42;;;;;;;13.25;1.92;;;;;;;;;;5025345;28;20037;-71
2023/01/17 12:36:46;;;;;;;8.38;1.27;;;;;;;;;;5023739;28;20018;-71
2023/01/17 12:39:14;;;;;;;9.15;1.77;;;;;;;;;;4968456;28;20030;-72
2023/01/17 12:41:41;;;;;;;2.83;0.50;;;;;;;;;;4973868;28;20038;-72
2023/01/17 12:44:08;;;;;;;1.95;0.82;;;;;;;;;;4997355;28;20041;-74
2023/01/17 12:46:37;;;;;;;12.07;2.03;;;;;;;;;;5029015;28;20029;-74
2023/01/17 12:49:22;;;;;;;0.20;0.20;;;;;;;;;;5028814;28;20014;-72
2023/01/17 12:51:52;;;;;;;12.68;1.83;;;;;;;;;;5027575;28;20041;-72
2023/01/17 12:54:32;;;;;;;5.68;1.50;;;;;;;;;;5032112;28;20467;-72
2023/01/17 12:57:00;;;;;;;8.43;2.50;;;;;;;;;;5029016;28;20021;-75
2023/01/17 12:59:31;;;;;;;15.05;2.33;;;;;;;;;;5027746;28;20037;-74
2023/01/17 13:01:58;;;;;;;13.00;2.33;;;;;;;;;;5028121;28;20559;-72
2023/01/17 13:04:30;;;;;;;11.98;1.83;;;;;;;;;;5012461;28;20072;-70
2023/01/17 13:06:58;;;;;;;9.10;2.55;;;;;;;;;;5027712;28;20082;-72
2023/01/17 13:09:24;;;;;;;17.80;2.07;;;;;;;;;;5028685;28;20136;-71
2023/01/17 13:12:01;;;;;;;10.27;1.92;;;;;;;;;;5008736;28;20153;-73
2023/01/17 13:14:26;;;;;;;8.98;1.13;;;;;;;;;;5026941;28;20029;-72
2023/01/17 13:17:01;;;;;;;8.77;2.33;;;;;;;;;;5025828;28;20368;-74
2023/01/17 13:19:29;;;;;;;5.53;1.10;;;;;;;;;;5025899;28;20029;-73
2023/01/17 13:21:55;;;;;;;8.68;1.65;;;;;;;;;;5024119;28;20484;-70
2023/01/17 13:24:26;;;;;;;6.30;1.55;;;;;;;;;;5025173;28;20030;-71
2023/01/17 13:26:55;;;;;;;8.40;2.13;;;;;;;;;;5026737;28;20021;-73
2023/01/17 13:29:20;;;;;;;8.13;2.00;;;;;;;;;;5026339;28;20022;-71
2023/01/17 13:32:06;;;;;;;20.50;2.85;;;;;;;;;;5027265;28;20037;-72
2023/01/17 13:34:40;;;;;;;4.03;0.75;;;;;;;;;;5018008;28;20041;-69
2023/01/17 13:37:18;;;;;;;22.88;6.63;;;;;;;;;;5028794;28;20116;-70
2023/01/17 13:40:02;;;;;;;12.00;1.70;;;;;;;;;;5027854;28;20025;-73
2023/01/17 13:42:37;;;;;;;3.88;1.20;;;;;;;;;;5027079;28;20108;-69
2023/01/17 13:45:06;;;;;;;1.13;0.47;;;;;;;;;;5029699;28;20409;-71
2023/01/17 13:47:32;;;;;;;;;;;;;;;;;;5032532;28;20005;-70
2023/01/17 13:49:58;;;;;;;4.90;1.60;;;;;;;;;;5031842;28;19916;-72
2023/01/17 13:52:23;;;;;;;5.10;1.83;;;;;;;;;;5029691;28;20038;-71
2023/01/17 13:54:56;;;;;;;1.02;0.47;;;;;;;;;;5030203;28;20026;-71
2023/01/17 13:57:25;;;;;;;1.83;0.63;;;;;;;;;;5029863;28;20079;-69
2023/01/17 13:59:54;;;;;;;0.28;0.28;;;;;;;;;;5029681;28;20029;-71
2023/01/17 14:02:31;;;;;;;13.75;1.83;;;;;;;;;;5030007;28;20045;-71
2023/01/17 14:05:14;;;;;;;1.00;0.38;;;;;;;;;;5029445;28;20088;-72
2023/01/17 14:08:16;;;;;;;6.53;1.58;;;;;;;;;;5031223;28;20069;-73
2023/01/17 14:10:49;;;;;;;10.00;3.05;;;;;;;;;;4970588;28;20054;-72
2023/01/17 14:13:33;;;;;;;14.77;1.30;;;;;;;;;;5020598;28;20346;-72
2023/01/17 14:15:59;;;;;;;5.65;1.17;;;;;;;;;;5031282;28;20030;-72
2023/01/17 14:18:38;;;;;;;1.48;0.65;;;;;;;;;;5031508;28;20385;-71
2023/01/17 14:21:10;;;;;;;4.47;1.00;;;;;;;;;;5031408;28;20064;-71
2023/01/17 14:23:56;;;;;;;5.72;1.65;;;;;;;;;;5031723;28;20030;-71
2023/01/17 14:26:24;;;;;;;7.22;1.50;;;;;;;;;;5030367;28;20040;-70
2023/01/17 14:28:50;;;;;;;0.63;0.47;;;;;;;;;;5031085;28;20108;-73
2023/01/17 14:31:16;;;;;;;6.38;1.40;;;;;;;;;;5031142;28;20065;-72
2023/01/17 14:33:41;;;;;;;18.08;2.80;;;;;;;;;;5030891;28;20417;-71
2023/01/17 14:36:14;;;;;;;0.90;0.30;;;;;;;;;;5031352;28;20033;-74
2023/01/17 14:38:40;;;;;;;11.93;2.97;;;;;;;;;;5013390;28;20040;-74
2023/01/17 14:41:07;;;;;;;17.65;2.97;;;;;;;;;;5036393;28;20356;-73
2023/01/17 14:43:34;;;;;;;9.13;2.08;;;;;;;;;;5031188;28;20029;-72
2023/01/17 14:46:00;;;;;;;9.85;0.85;;;;;;;;;;5048231;28;20128;-74
2023/01/17 14:48:27;;;;;;;4.22;1.23;;;;;;;;;;5051002;28;20468;-72
2023/01/17 14:50:53;;;;;;;14.52;1.58;;;;;;;;;;5050168;28;20039;-73
2023/01/17 14:53:20;;;;;;;1.50;0.40;;;;;;;;;;5050640;28;20369;-73
2023/01/17 14:55:45;;;;;;;4.47;1.42;;;;;;;;;;5047798;28;20206;-72
2023/01/17 14:58:16;;;;;;;13.50;1.42;;;;;;;;;;5038410;28;20029;-73
2023/01/17 15:00:41;;;;;;;9.77;1.52;;;;;;;;;;5050471;28;20495;-73
2023/01/17 15:03:09;;;;;;;2.42;0.55;;;;;;;;;;5050620;28;20013;-72
2023/01/17 15:05:38;;;;;;;7.97;2.30;;;;;;;;;;5050478;28;20045;-72
2023/01/17 15:08:03;;;;;;;1.83;0.70;;;;;;;;;;5050365;28;20029;-72
2023/01/17 15:10:30;;;;;;;14.90;3.92;;;;;;;;;;5036423;28;20377;-72
2023/01/17 15:12:57;;;;;;;6.07;0.73;;;;;;;;;;5012747;28;20056;-72
2023/01/17 15:15:26;;;;;;;0.47;0.17;;;;;;;;;;5014834;28;20089;-72
2023/01/17 15:18:06;;;;;;;8.38;1.77;;;;;;;;;;4992914;28;20029;-73
2023/01/17 15:20:32;;;;;;;8.20;0.82;;;;;;;;;;5029835;28;20029;-72
2023/01/17 15:22:58;;;;;;;7.13;2.15;;;;;;;;;;5030071;28;20036;-72
2023/01/17 15:25:23;;;;;;;18.05;3.17;;;;;;;;;;5021044;28;20025;-71
2023/01/17 15:27:48;;;;;;;11.60;2.30;;;;;;;;;;5010401;28;20061;-73
2023/01/17 15:30:14;;;;;;;11.30;1.08;;;;;;;;;;5010374;28;20020;-74
2023/01/17 15:32:40;;;;;;;14.95;2.88;;;;;;;;;;5009772;28;20033;-72
2023/01/17 15:35:06;;;;;;;2.78;0.57;;;;;;;;;;5010308;28;20464;-72
2023/01/17 15:37:33;;;;;;;12.38;2.83;;;;;;;;;;5009989;28;20500;-72
2023/01/17 15:40:13;;;;;;;19.77;1.80;;;;;;;;;;5027044;28;20053;-73
2023/01/17 15:42:41;;;;;;;24.38;3.55;;;;;;;;;;5010651;28;20797;-72
2023/01/17 15:45:11;;;;;;;16.60;2.72;;;;;;;;;;5028419;28;20087;-72
2023/01/17 15:47:37;;;;;;;14.75;2.75;;;;;;;;;;5028716;28;20384;-72
2023/01/17 15:50:26;;;;;;;14.77;4.28;;;;;;;;;;5011758;28;20029;-73
2023/01/17 15:52:59;;;;;;;11.63;2.50;;;;;;;;;;5032533;28;20047;-72
2023/01/17 15:55:28;;;;;;;0.73;0.60;;;;;;;;;;5031604;28;20048;-72
2023/01/17 15:57:53;;;;;;;8.82;1.90;;;;;;;;;;5049341;28;20029;-71
2023/01/17 16:00:25;;;;;;;22.00;2.20;;;;;;;;;;5037022;28;20021;-73
2023/01/17 16:02:54;;;;;;;17.80;2.78;;;;;;;;;;5011969;28;20112;-74
2023/01/17 16:05:26;;;;;;;11.38;2.47;;;;;;;;;;5049370;28;20045;-72
2023/01/17 16:07:55;;;;;;;10.13;1.73;;;;;;;;;;5048656;28;20171;-72
2023/01/17 16:10:22;;;;;;;10.50;1.92;;;;;;;;;;5049558;28;20028;-70
2023/01/17 16:12:49;;;;;;;7.60;1.85;;;;;;;;;;5048970;28;20128;-73